createdAt,value
2023-05-05T00:01:57.879Z,74.19
2023-05-05T00:04:07.635Z,74.10
2023-05-05T00:06:16.764Z,73.74
2023-05-05T00:08:26.169Z,73.53
2023-05-05T00:10:35.309Z,73.56
2023-05-05T00:12:44.707Z,73.61
2023-05-05T00:14:54.314Z,73.54
2023-05-05T00:17:04.477Z,73.58
2023-05-05T00:19:14.116Z,73.44
2023-05-05T00:21:23.288Z,73.51
2023-05-05T00:23:32.535Z,73.39
2023-05-05T00:25:41.625Z,73.45
2023-05-05T00:27:50.889Z,73.34
2023-05-05T00:29:59.972Z,73.14
2023-05-05T00:32:09.170Z,73.06
2023-05-05T00:34:18.302Z,72.95
2023-05-05T00:36:27.345Z,73.02
2023-05-05T00:38:36.460Z,73.07
2023-05-05T00:40:45.568Z,72.94
2023-05-05T00:42:54.976Z,73.03
2023-05-05T00:45:04.803Z,73.07
2023-05-05T00:47:16.310Z,73.04
2023-05-05T00:49:25.387Z,73.05
2023-05-05T00:51:34.726Z,73.15
2023-05-05T00:53:45.643Z,73.26
2023-05-05T00:55:54.817Z,73.18
2023-05-05T00:58:04.628Z,72.95
2023-05-05T01:00:15.668Z,73.10
2023-05-05T01:02:24.835Z,73.17
2023-05-05T01:04:33.961Z,72.96
2023-05-05T01:06:54.178Z,72.90
2023-05-05T01:09:11.214Z,72.90
2023-05-05T01:11:28.149Z,73.04
2023-05-05T01:13:48.864Z,73.28
2023-05-05T01:16:06.043Z,73.13
2023-05-05T01:18:33.061Z,73.19
2023-05-05T01:20:50.635Z,73.00
2023-05-05T01:23:05.223Z,73.22
2023-05-05T01:25:40.471Z,73.13
2023-05-05T01:28:00.244Z,73.03
2023-05-05T01:30:22.448Z,73.07
2023-05-05T01:32:31.875Z,73.24
2023-05-05T01:34:47.207Z,73.40
2023-05-05T01:37:09.189Z,73.41
2023-05-05T01:39:20.326Z,73.40
2023-05-05T01:41:32.132Z,73.45
2023-05-05T01:43:44.460Z,73.69
2023-05-05T01:45:56.248Z,73.65
2023-05-05T01:48:04.738Z,73.57
2023-05-05T01:50:17.089Z,73.52
2023-05-05T01:52:27.986Z,73.56
2023-05-05T01:54:39.913Z,73.60
2023-05-05T01:56:48.239Z,73.72
2023-05-05T01:58:59.421Z,73.78
2023-05-05T02:01:09.172Z,73.86
2023-05-05T02:03:20.572Z,73.90
2023-05-05T02:05:31.551Z,73.90
2023-05-05T02:07:41.067Z,73.69
2023-05-05T02:09:52.890Z,73.59
2023-05-05T02:12:03.033Z,73.63
2023-05-05T02:14:14.151Z,73.54
2023-05-05T02:16:24.497Z,73.58
2023-05-05T02:18:36.266Z,73.63
2023-05-05T02:20:45.774Z,73.74
2023-05-05T02:22:55.483Z,73.83
2023-05-05T02:25:04.963Z,74.01
2023-05-05T02:27:17.503Z,73.96
2023-05-05T02:29:34.487Z,74.02
2023-05-05T02:31:49.723Z,73.97
2023-05-05T02:34:02.878Z,73.90
2023-05-05T02:36:19.888Z,73.94
2023-05-05T02:38:34.491Z,73.92
2023-05-05T02:40:47.277Z,73.90
2023-05-05T02:43:01.661Z,73.93
2023-05-05T02:45:16.964Z,73.89
2023-05-05T02:47:38.221Z,73.84
2023-05-05T02:49:48.861Z,73.91
2023-05-05T02:51:58.485Z,74.05
2023-05-05T02:54:09.889Z,74.01
2023-05-05T02:56:28.752Z,74.09
2023-05-05T02:58:47.139Z,74.23
2023-05-05T03:01:04.202Z,74.17
2023-05-05T03:03:20.381Z,74.22
2023-05-05T03:05:37.286Z,74.24
2023-05-05T03:07:56.529Z,74.40
2023-05-05T03:10:14.170Z,74.51
2023-05-05T03:12:37.077Z,74.52
2023-05-05T03:14:57.072Z,74.68
2023-05-05T03:17:07.987Z,74.75
2023-05-05T03:19:19.335Z,74.72
2023-05-05T03:21:30.812Z,74.78
2023-05-05T03:23:40.365Z,74.79
2023-05-05T03:25:54.588Z,74.85
2023-05-05T03:28:10.432Z,74.80
2023-05-05T03:30:20.566Z,74.94
2023-05-05T03:32:32.372Z,74.83
2023-05-05T03:34:41.918Z,75.00
2023-05-05T03:36:51.300Z,74.94
2023-05-05T03:39:00.594Z,74.94
2023-05-05T03:41:12.299Z,74.63
2023-05-05T03:43:26.964Z,74.57
2023-05-05T03:45:36.370Z,74.68
2023-05-05T03:47:46.513Z,74.49
2023-05-05T03:49:56.638Z,74.49
2023-05-05T03:52:07.726Z,74.47
2023-05-05T03:54:17.409Z,74.52
2023-05-05T03:56:27.066Z,74.73
2023-05-05T03:58:36.337Z,74.74
2023-05-05T04:00:45.746Z,74.54
2023-05-05T04:02:55.670Z,74.51
2023-05-05T04:05:06.701Z,74.47
2023-05-05T04:07:16.123Z,74.40
2023-05-05T04:09:26.590Z,74.52
2023-05-05T04:11:35.686Z,74.41
2023-05-05T04:13:46.357Z,74.53
2023-05-05T04:15:58.432Z,74.47
2023-05-05T04:18:06.130Z,74.63
2023-05-05T04:20:15.917Z,74.68
2023-05-05T04:22:26.595Z,74.78
2023-05-05T04:24:35.976Z,74.94
2023-05-05T04:26:45.081Z,75.07
2023-05-05T04:28:57.686Z,75.04
2023-05-05T04:31:08.173Z,75.16
2023-05-05T04:33:18.684Z,75.14
2023-05-05T04:35:29.261Z,75.23
2023-05-05T04:37:40.111Z,75.34
2023-05-05T04:39:50.195Z,75.49
2023-05-05T04:41:59.805Z,75.47
2023-05-05T04:44:09.124Z,75.62
2023-05-05T04:46:18.370Z,75.70
2023-05-05T04:48:27.897Z,75.75
2023-05-05T04:50:37.372Z,75.87
2023-05-05T04:52:47.266Z,75.82
2023-05-05T04:54:56.446Z,75.83
2023-05-05T04:57:05.722Z,75.94
2023-05-05T04:59:15.069Z,75.97
2023-05-05T05:01:24.493Z,76.07
2023-05-05T05:03:33.840Z,76.26
2023-05-05T05:05:43.073Z,76.12
2023-05-05T05:07:52.530Z,76.32
2023-05-05T05:10:01.865Z,76.32
2023-05-05T05:12:11.283Z,76.44
2023-05-05T05:14:20.506Z,76.57
2023-05-05T05:16:30.080Z,76.42
2023-05-05T05:18:39.425Z,76.53
2023-05-05T05:20:48.919Z,76.55
2023-05-05T05:22:58.771Z,76.71
2023-05-05T05:25:08.781Z,76.88
2023-05-05T05:27:18.665Z,76.93
2023-05-05T05:29:28.749Z,76.91
2023-05-05T05:31:40.221Z,76.89
2023-05-05T05:33:49.552Z,76.95
2023-05-05T05:35:59.227Z,77.10
2023-05-05T05:38:08.386Z,77.06
2023-05-05T05:40:19.732Z,76.94
2023-05-05T05:42:29.427Z,77.14
2023-05-05T05:44:38.807Z,77.18
2023-05-05T05:46:48.294Z,77.08
2023-05-05T05:48:57.995Z,77.10
2023-05-05T05:51:07.825Z,77.21
2023-05-05T05:53:18.290Z,77.28
2023-05-05T05:55:27.764Z,77.24
2023-05-05T05:57:37.634Z,77.36
2023-05-05T05:59:47.672Z,77.16
2023-05-05T06:02:00.111Z,77.36
2023-05-05T06:04:10.007Z,77.35
2023-05-05T06:06:19.948Z,77.28
2023-05-05T06:08:29.293Z,77.23
2023-05-05T06:10:38.862Z,77.05
2023-05-05T06:12:54.043Z,77.05
2023-05-05T06:15:03.429Z,77.28
2023-05-05T06:17:12.610Z,77.07
2023-05-05T06:19:22.860Z,77.19
2023-05-05T06:21:32.580Z,77.14
2023-05-05T06:23:42.568Z,76.97
2023-05-05T06:25:52.220Z,76.95
2023-05-05T06:28:01.547Z,76.81
2023-05-05T06:30:12.669Z,76.79
2023-05-05T06:32:21.998Z,76.77
2023-05-05T06:34:30.793Z,76.76
2023-05-05T06:36:40.040Z,76.67
2023-05-05T06:38:49.361Z,76.56
2023-05-05T06:40:59.892Z,76.48
2023-05-05T06:43:09.120Z,76.39
2023-05-05T06:45:23.418Z,76.47
2023-05-05T06:47:32.534Z,76.05
2023-05-05T06:49:41.614Z,75.90
2023-05-05T06:51:50.701Z,75.72
2023-05-05T06:54:00.269Z,75.60
2023-05-05T06:56:09.998Z,75.52
2023-05-05T06:58:19.225Z,75.29
2023-05-05T07:00:29.257Z,75.20
2023-05-05T07:02:38.418Z,75.22
2023-05-05T07:04:48.284Z,74.72
2023-05-05T07:06:58.653Z,74.66
2023-05-05T07:09:07.767Z,74.65
2023-05-05T07:11:16.926Z,74.80
2023-05-05T07:13:26.128Z,74.24
2023-05-05T07:15:35.426Z,73.99
2023-05-05T07:17:45.022Z,74.00
2023-05-05T07:19:55.306Z,73.84
2023-05-05T07:22:04.620Z,73.59
2023-05-05T07:24:14.159Z,73.33
2023-05-05T07:26:24.804Z,73.03
2023-05-05T07:28:33.896Z,73.12
2023-05-05T07:30:43.045Z,72.84
2023-05-05T07:32:52.292Z,72.63
2023-05-05T07:35:01.714Z,72.68
2023-05-05T07:37:11.179Z,72.35
2023-05-05T07:39:21.441Z,72.44
2023-05-05T07:41:30.655Z,72.36
2023-05-05T07:43:42.344Z,72.28
2023-05-05T07:45:53.493Z,72.18
2023-05-05T07:48:02.781Z,72.40
2023-05-05T07:50:13.736Z,72.26
2023-05-05T07:52:33.163Z,72.18
2023-05-05T07:54:52.860Z,72.14
2023-05-05T07:57:02.458Z,72.08
2023-05-05T07:59:11.460Z,72.24
2023-05-05T08:01:20.852Z,72.08
2023-05-05T08:03:30.417Z,72.09
2023-05-05T08:05:39.750Z,72.14
2023-05-05T08:07:48.867Z,72.25
2023-05-05T08:09:58.158Z,72.14
2023-05-05T08:12:07.767Z,72.11
2023-05-05T08:14:16.802Z,71.99
2023-05-05T08:16:26.460Z,72.02
2023-05-05T08:18:37.840Z,72.04
2023-05-05T08:20:47.195Z,72.18
2023-05-05T08:22:56.489Z,71.92
2023-05-05T08:25:06.912Z,72.03
2023-05-05T08:27:16.204Z,71.99
2023-05-05T08:29:25.488Z,72.17
2023-05-05T08:31:38.329Z,72.26
2023-05-05T08:33:47.548Z,72.19
2023-05-05T08:35:56.991Z,72.02
2023-05-05T08:38:06.092Z,72.00
2023-05-05T08:40:17.221Z,72.03
2023-05-05T08:42:37.116Z,71.89
2023-05-05T08:44:48.233Z,72.04
2023-05-05T08:46:58.481Z,71.76
2023-05-05T08:49:15.753Z,71.76
2023-05-05T08:51:28.691Z,71.72
2023-05-05T08:53:48.782Z,71.85
2023-05-05T08:55:58.320Z,71.99
2023-05-05T08:58:08.194Z,71.87
2023-05-05T09:00:19.931Z,72.08
2023-05-05T09:02:31.428Z,71.84
2023-05-05T09:04:40.850Z,71.98
2023-05-05T09:06:50.009Z,72.05
2023-05-05T09:08:59.800Z,72.00
2023-05-05T09:11:09.290Z,71.93
2023-05-05T09:13:27.811Z,71.94
2023-05-05T09:15:39.314Z,71.94
2023-05-05T09:17:48.730Z,71.97
2023-05-05T09:20:09.695Z,71.81
2023-05-05T09:22:19.103Z,72.04
2023-05-05T09:24:29.385Z,72.02
2023-05-05T09:26:39.827Z,71.98
2023-05-05T09:28:57.101Z,72.01
2023-05-05T09:31:17.839Z,71.99
2023-05-05T09:33:34.327Z,72.23
2023-05-05T09:35:56.857Z,72.07
2023-05-05T09:38:16.060Z,72.27
2023-05-05T09:40:25.386Z,72.38
2023-05-05T09:42:34.678Z,71.94
2023-05-05T09:44:44.173Z,72.48
2023-05-05T09:46:55.771Z,72.13
2023-05-05T09:49:18.975Z,72.35
2023-05-05T09:51:33.784Z,72.40
2023-05-05T09:53:45.802Z,72.32
2023-05-05T09:55:56.616Z,72.43
2023-05-05T09:58:24.018Z,72.49
2023-05-05T10:03:11.253Z,72.97
2023-05-05T10:05:21.463Z,72.50
2023-05-05T10:07:30.499Z,72.61
2023-05-05T10:09:40.256Z,72.80
2023-05-05T10:11:50.078Z,72.81
2023-05-05T10:14:00.022Z,72.80
2023-05-05T10:16:13.965Z,72.70
2023-05-05T10:18:28.517Z,72.71
2023-05-05T10:20:40.409Z,72.96
2023-05-05T10:22:54.828Z,72.92
2023-05-05T10:25:11.115Z,72.81
2023-05-05T10:27:22.334Z,72.79
2023-05-05T10:29:39.194Z,72.72
2023-05-05T10:31:52.681Z,72.80
2023-05-05T10:34:07.986Z,72.78
2023-05-05T10:36:18.525Z,72.63
2023-05-05T10:38:30.703Z,72.64
2023-05-05T10:40:40.159Z,72.69
2023-05-05T10:42:50.565Z,72.72
2023-05-05T10:44:59.710Z,72.94
2023-05-05T10:47:09.691Z,72.86
2023-05-05T10:49:26.431Z,73.01
2023-05-05T10:51:45.604Z,72.88
2023-05-05T10:54:00.762Z,73.12
2023-05-05T10:56:16.818Z,73.03
2023-05-05T10:58:55.550Z,73.23
2023-05-05T11:01:09.840Z,73.05
2023-05-05T11:03:28.001Z,73.18
2023-05-05T11:05:37.340Z,73.18
2023-05-05T11:07:47.430Z,73.35
2023-05-05T11:10:02.622Z,72.94
2023-05-05T11:12:14.101Z,73.41
2023-05-05T11:14:26.450Z,73.18
2023-05-05T11:16:50.354Z,73.23
2023-05-05T11:18:59.607Z,73.07
2023-05-05T11:21:16.802Z,73.24
2023-05-05T11:23:29.485Z,73.27
2023-05-05T11:25:54.325Z,73.40
2023-05-05T11:28:10.528Z,73.18
2023-05-05T11:30:19.879Z,73.41
2023-05-05T11:32:29.511Z,73.34
2023-05-05T11:34:49.641Z,73.37
2023-05-05T11:37:02.764Z,73.43
2023-05-05T11:39:24.999Z,73.28
2023-05-05T11:41:53.626Z,73.24
2023-05-05T11:44:15.051Z,73.23
2023-05-05T11:46:24.318Z,73.24
2023-05-05T11:48:33.816Z,73.16
2023-05-05T11:50:43.295Z,73.17
2023-05-05T11:52:52.791Z,73.09
2023-05-05T11:55:09.176Z,73.00
2023-05-05T11:57:21.476Z,72.85
2023-05-05T11:59:30.615Z,73.16
2023-05-05T12:01:42.664Z,72.94
2023-05-05T12:03:52.323Z,72.79
2023-05-05T12:06:01.651Z,72.98
2023-05-05T12:08:11.286Z,73.03
2023-05-05T12:10:27.852Z,72.70
2023-05-05T12:12:41.702Z,72.85
2023-05-05T12:14:53.238Z,73.00
2023-05-05T12:17:06.869Z,72.91
2023-05-05T12:19:16.184Z,72.95
2023-05-05T12:21:25.583Z,72.92
2023-05-05T12:23:41.298Z,72.66
2023-05-05T12:25:50.872Z,72.67
2023-05-05T12:28:00.307Z,72.73
2023-05-05T12:30:20.943Z,72.75
2023-05-05T12:32:30.800Z,72.84
2023-05-05T12:34:40.300Z,72.64
2023-05-05T12:36:49.643Z,72.87
2023-05-05T12:38:59.764Z,72.73
2023-05-05T12:41:09.243Z,72.84
2023-05-05T12:43:34.920Z,72.89
2023-05-05T12:45:44.172Z,72.77
2023-05-05T12:47:53.595Z,72.73
2023-05-05T12:50:03.839Z,72.77
2023-05-05T12:52:13.100Z,72.80
2023-05-05T12:54:23.806Z,72.88
2023-05-05T12:56:37.974Z,72.74
2023-05-05T12:58:55.580Z,72.93
2023-05-05T13:01:13.826Z,73.05
2023-05-05T13:03:24.395Z,72.83
2023-05-05T13:05:37.662Z,73.05
2023-05-05T13:07:56.133Z,72.79
2023-05-05T13:10:14.205Z,72.88
2023-05-05T13:12:25.016Z,73.04
2023-05-05T13:14:35.368Z,72.95
2023-05-05T13:16:44.605Z,72.89
2023-05-05T13:18:55.085Z,72.89
2023-05-05T13:21:04.332Z,72.91
2023-05-05T13:23:13.473Z,72.90
2023-05-05T13:25:22.682Z,72.84
2023-05-05T13:27:32.443Z,72.66
2023-05-05T13:29:42.067Z,72.68
2023-05-05T13:31:51.281Z,73.09
2023-05-05T13:34:00.731Z,72.95
2023-05-05T13:36:10.868Z,72.89
2023-05-05T13:38:20.126Z,73.04
2023-05-05T13:40:29.779Z,72.88
2023-05-05T13:42:38.902Z,72.95
2023-05-05T13:44:48.129Z,72.97
2023-05-05T13:46:57.466Z,72.80
2023-05-05T13:49:06.683Z,73.09
2023-05-05T13:51:16.142Z,73.11
2023-05-05T13:53:25.447Z,73.12
2023-05-05T13:55:34.760Z,72.88
2023-05-05T13:57:44.000Z,72.71
2023-05-05T13:59:53.196Z,73.15
2023-05-05T14:02:02.761Z,73.10
2023-05-05T14:04:12.227Z,72.95
2023-05-05T14:06:21.901Z,72.78
2023-05-05T14:08:31.277Z,72.99
2023-05-05T14:10:40.721Z,73.09
2023-05-05T14:12:49.889Z,73.09
2023-05-05T14:14:59.126Z,73.19
2023-05-05T14:17:08.186Z,72.79
2023-05-05T14:19:17.348Z,72.82
2023-05-05T14:21:27.046Z,72.88
2023-05-05T14:23:36.321Z,72.77
2023-05-05T14:25:45.546Z,72.85
2023-05-05T14:27:55.556Z,73.02
2023-05-05T14:30:05.189Z,73.13
2023-05-05T14:32:15.042Z,72.92
2023-05-05T14:34:24.369Z,72.99
2023-05-05T14:36:34.111Z,73.00
2023-05-05T14:38:43.904Z,72.78
2023-05-05T14:40:53.072Z,72.84
2023-05-05T14:43:03.372Z,72.84
2023-05-05T14:45:14.016Z,72.62
2023-05-05T14:47:23.439Z,73.09
2023-05-05T14:49:32.996Z,73.04
2023-05-05T14:51:43.054Z,72.92
2023-05-05T14:53:52.098Z,72.86
2023-05-05T14:56:02.614Z,72.79
2023-05-05T14:58:12.011Z,72.75
2023-05-05T15:00:22.274Z,72.85
2023-05-05T15:02:31.613Z,72.78
2023-05-05T15:04:41.374Z,73.07
2023-05-05T15:06:51.081Z,72.61
2023-05-05T15:09:00.315Z,73.10
2023-05-05T15:11:09.608Z,73.01
2023-05-05T15:13:19.211Z,73.02
2023-05-05T15:15:28.624Z,72.86
2023-05-05T15:17:39.101Z,72.93
2023-05-05T15:19:48.390Z,73.06
2023-05-05T15:21:58.045Z,73.01
2023-05-05T15:24:07.799Z,72.87
2023-05-05T15:26:16.884Z,73.05
2023-05-05T15:28:26.269Z,73.09
2023-05-05T15:30:35.800Z,72.96
2023-05-05T15:32:44.986Z,72.76
2023-05-05T15:34:55.411Z,73.03
2023-05-05T15:37:04.934Z,73.00
2023-05-05T15:39:14.202Z,73.11
2023-05-05T15:41:23.464Z,73.06
2023-05-05T15:43:32.917Z,73.09
2023-05-05T15:45:42.433Z,72.98
2023-05-05T15:47:51.667Z,73.07
2023-05-05T15:50:01.115Z,73.10
2023-05-05T15:52:10.466Z,73.08
2023-05-05T15:54:19.565Z,73.17
2023-05-05T15:56:29.540Z,72.90
2023-05-05T15:58:38.765Z,73.03
2023-05-05T16:00:47.875Z,73.17
2023-05-05T16:02:57.236Z,73.13
2023-05-05T16:05:06.976Z,72.97
2023-05-05T16:07:17.342Z,72.91
2023-05-05T16:09:26.937Z,72.84
2023-05-05T16:11:37.522Z,72.84
2023-05-05T16:13:46.751Z,72.76
2023-05-05T16:15:56.029Z,72.57
2023-05-05T16:18:05.699Z,72.63
2023-05-05T16:20:16.118Z,72.39
2023-05-05T16:22:25.207Z,72.61
2023-05-05T16:24:34.778Z,72.54
2023-05-05T16:26:43.935Z,72.30
2023-05-05T16:28:53.042Z,72.16
2023-05-05T16:31:02.535Z,72.21
2023-05-05T16:33:12.040Z,72.04
2023-05-05T16:35:21.501Z,71.96
2023-05-05T16:37:31.280Z,71.98
2023-05-05T16:39:41.577Z,72.02
2023-05-05T16:41:50.846Z,72.08
2023-05-05T16:44:00.332Z,72.03
2023-05-05T16:46:09.942Z,72.04
2023-05-05T16:48:19.276Z,72.04
2023-05-05T16:50:28.817Z,71.91
2023-05-05T16:52:37.257Z,71.59
2023-05-05T16:54:47.049Z,71.63
2023-05-05T16:56:56.322Z,71.75
2023-05-05T16:59:05.940Z,71.46
2023-05-05T17:01:15.206Z,71.73
2023-05-05T17:03:24.500Z,71.69
2023-05-05T17:05:33.764Z,71.55
2023-05-05T17:07:43.617Z,71.12
2023-05-05T17:09:52.953Z,71.39
2023-05-05T17:12:04.518Z,71.36
2023-05-05T17:14:13.697Z,71.18
2023-05-05T17:16:23.149Z,71.27
2023-05-05T17:18:32.673Z,71.26
2023-05-05T17:20:41.780Z,71.07
2023-05-05T17:22:51.534Z,71.16
2023-05-05T17:25:00.855Z,71.06
2023-05-05T17:27:10.149Z,70.95
2023-05-05T17:29:20.207Z,70.94
2023-05-05T17:31:29.751Z,70.91
2023-05-05T17:33:39.385Z,70.85
2023-05-05T17:35:48.730Z,70.50
2023-05-05T17:38:00.886Z,70.51
2023-05-05T17:40:11.736Z,70.46
2023-05-05T17:42:23.300Z,70.17
2023-05-05T17:44:33.059Z,70.15
2023-05-05T17:46:42.269Z,70.20
2023-05-05T17:48:51.477Z,70.20
2023-05-05T17:51:01.135Z,70.16
2023-05-05T17:53:10.974Z,69.47
2023-05-05T17:55:20.492Z,69.45
2023-05-05T17:57:29.787Z,69.45
2023-05-05T17:59:39.094Z,69.69
2023-05-05T18:01:48.308Z,69.77
2023-05-05T18:03:57.893Z,69.56
2023-05-05T18:06:07.543Z,69.54
2023-05-05T18:08:17.004Z,68.97
2023-05-05T18:10:26.509Z,68.95
2023-05-05T18:12:35.909Z,69.04
2023-05-05T18:14:45.324Z,68.79
2023-05-05T18:16:54.791Z,68.66
2023-05-05T18:19:04.368Z,68.81
2023-05-05T18:21:13.533Z,68.54
2023-05-05T18:23:22.825Z,68.46
2023-05-05T18:25:32.790Z,68.49
2023-05-05T18:27:44.205Z,68.63
2023-05-05T18:29:53.562Z,68.37
2023-05-05T18:32:03.328Z,68.16
2023-05-05T18:34:12.569Z,68.06
2023-05-05T18:36:21.697Z,67.71
2023-05-05T18:38:31.414Z,67.91
2023-05-05T18:40:40.705Z,67.77
2023-05-05T18:42:49.809Z,67.37
2023-05-05T18:44:58.801Z,67.57
2023-05-05T18:47:08.589Z,67.54
2023-05-05T18:49:17.890Z,67.63
2023-05-05T18:51:27.129Z,67.54
2023-05-05T18:53:37.081Z,67.20
2023-05-05T18:55:47.370Z,66.72
2023-05-05T18:57:56.452Z,66.93
2023-05-05T19:00:06.152Z,67.09
2023-05-05T19:02:15.211Z,66.93
2023-05-05T19:04:30.868Z,66.90
2023-05-05T19:06:42.047Z,66.77
2023-05-05T19:08:51.746Z,66.51
2023-05-05T19:11:01.058Z,66.26
2023-05-05T19:13:11.315Z,66.00
2023-05-05T19:15:21.164Z,66.05
2023-05-05T19:17:30.722Z,66.09
2023-05-05T19:19:40.171Z,66.16
2023-05-05T19:21:49.489Z,66.23
2023-05-05T19:23:58.856Z,66.22
2023-05-05T19:26:08.248Z,66.15
2023-05-05T19:28:17.354Z,66.27
2023-05-05T19:30:26.922Z,65.96
2023-05-05T19:32:36.449Z,65.72
2023-05-05T19:34:46.354Z,65.67
2023-05-05T19:36:55.702Z,65.39
2023-05-05T19:39:06.493Z,65.24
2023-05-05T19:41:18.114Z,65.16
2023-05-05T19:43:27.335Z,64.97
2023-05-05T19:45:36.955Z,64.35
2023-05-05T19:47:46.553Z,64.66
2023-05-05T19:49:55.692Z,64.65
2023-05-05T19:52:05.169Z,64.41
2023-05-05T19:54:14.348Z,64.46
2023-05-05T19:56:23.570Z,64.52
2023-05-05T19:58:32.753Z,64.54
2023-05-05T20:00:42.104Z,64.20
2023-05-05T20:02:51.285Z,64.28
2023-05-05T20:05:00.464Z,64.09
2023-05-05T20:07:09.857Z,63.50
2023-05-05T20:09:19.456Z,63.57
2023-05-05T20:11:29.974Z,63.92
2023-05-05T20:13:39.559Z,63.91
2023-05-05T20:15:48.806Z,64.05
2023-05-05T20:17:57.900Z,63.74
2023-05-05T20:20:08.290Z,63.50
2023-05-05T20:22:17.482Z,63.44
2023-05-05T20:24:26.702Z,63.10
2023-05-05T20:26:37.022Z,63.15
2023-05-05T20:28:46.368Z,62.96
2023-05-05T20:30:55.487Z,63.18
2023-05-05T20:33:04.969Z,62.89
2023-05-05T20:35:14.539Z,62.82
2023-05-05T20:37:23.771Z,62.69
2023-05-05T20:39:33.594Z,62.00
2023-05-05T20:41:42.695Z,62.09
2023-05-05T20:43:51.771Z,61.42
2023-05-05T20:46:01.206Z,61.14
2023-05-05T20:48:11.673Z,61.26
2023-05-05T20:50:21.836Z,61.23
2023-05-05T20:52:31.012Z,61.36
2023-05-05T20:54:40.548Z,61.30
2023-05-05T20:56:49.680Z,61.32
2023-05-05T20:58:58.872Z,61.48
2023-05-05T21:01:08.148Z,61.56
2023-05-05T21:03:17.351Z,61.57
2023-05-05T21:05:27.150Z,61.40
2023-05-05T21:07:36.919Z,61.17
2023-05-05T21:09:49.685Z,61.22
2023-05-05T21:11:58.855Z,60.93
2023-05-05T21:14:08.818Z,60.78
2023-05-05T21:16:18.008Z,60.72
2023-05-05T21:18:27.948Z,60.65
2023-05-05T21:20:37.141Z,60.75
2023-05-05T21:22:46.413Z,60.55
2023-05-05T21:24:55.729Z,60.60
2023-05-05T21:27:05.319Z,60.53
2023-05-05T21:29:14.954Z,60.38
2023-05-05T21:31:24.088Z,60.50
2023-05-05T21:33:33.387Z,60.57
2023-05-05T21:35:42.737Z,60.58
2023-05-05T21:37:52.423Z,60.59
2023-05-05T21:40:02.264Z,60.85
2023-05-05T21:42:11.901Z,60.63
2023-05-05T21:44:21.011Z,60.27
2023-05-05T21:46:30.243Z,60.55
2023-05-05T21:48:41.638Z,60.52
2023-05-05T21:50:50.858Z,60.53
2023-05-05T21:52:59.982Z,60.57
2023-05-05T21:55:11.300Z,60.70
2023-05-05T21:57:20.401Z,60.82
2023-05-05T21:59:29.704Z,61.12
2023-05-05T22:01:39.340Z,61.27
2023-05-05T22:03:48.798Z,61.43
2023-05-05T22:05:57.940Z,61.50
2023-05-05T22:08:07.413Z,61.56
2023-05-05T22:10:17.139Z,61.87
2023-05-05T22:12:26.373Z,61.56
2023-05-05T22:14:36.285Z,61.90
2023-05-05T22:16:45.510Z,62.03
2023-05-05T22:18:54.758Z,61.94
2023-05-05T22:21:04.961Z,62.10
2023-05-05T22:23:14.790Z,62.12
2023-05-05T22:25:24.179Z,62.36
2023-05-05T22:27:33.250Z,62.33
2023-05-05T22:29:42.705Z,62.38
2023-05-05T22:31:51.849Z,62.55
2023-05-05T22:34:01.250Z,62.58
2023-05-05T22:36:11.908Z,62.74
2023-05-05T22:38:21.025Z,62.72
2023-05-05T22:40:30.494Z,62.86
2023-05-05T22:42:40.047Z,62.87
2023-05-05T22:44:49.572Z,62.86
2023-05-05T22:46:59.272Z,62.93
2023-05-05T22:49:08.962Z,63.03
2023-05-05T22:51:18.286Z,63.25
2023-05-05T22:53:27.532Z,63.32
2023-05-05T22:55:37.476Z,63.56
2023-05-05T22:57:46.678Z,63.61
2023-05-05T22:59:56.240Z,63.78
2023-05-05T23:02:05.623Z,63.77
2023-05-05T23:04:14.940Z,63.80
2023-05-05T23:06:24.244Z,64.19
2023-05-05T23:08:33.551Z,64.29
2023-05-05T23:10:43.321Z,64.54
2023-05-05T23:12:52.506Z,64.81
2023-05-05T23:15:01.778Z,64.65
2023-05-05T23:17:13.956Z,64.79
2023-05-05T23:19:23.219Z,64.92
2023-05-05T23:21:36.262Z,64.99
2023-05-05T23:23:51.428Z,65.24
2023-05-05T23:26:00.562Z,65.17
2023-05-05T23:28:10.610Z,65.27
2023-05-05T23:30:20.322Z,65.16
2023-05-05T23:32:29.550Z,64.98
2023-05-05T23:34:38.925Z,64.95
2023-05-05T23:36:48.180Z,64.85
2023-05-05T23:38:57.473Z,64.74
2023-05-05T23:41:07.528Z,64.78
2023-05-05T23:43:16.636Z,64.72
2023-05-05T23:45:25.708Z,64.61
2023-05-05T23:47:34.891Z,64.71
2023-05-05T23:49:44.196Z,64.55
2023-05-05T23:51:53.368Z,64.42
2023-05-05T23:54:02.551Z,64.35
2023-05-05T23:56:12.577Z,64.27
2023-05-05T23:58:21.621Z,64.15
